Time;durP1;ratioP1;P1;durP2;ratioP2;P2;SDS_P1;SDS_P2;PMS_P1;PMS_P2;Temp;Humidity;BMP_temperature;BMP_pressure;BME280_temperature;BME280_humidity;BME280_pressure;Samples;Min_cycle;Max_cycle;Signal;HPM_P1;HPM_P2
2022/12/04 00:01:20;;;;;;;;;;;;;;;-0.08;100.00;101789.28;6215765;23;19912;-78
2022/12/04 00:03:45;;;;;;;;;;;;;;;-0.11;100.00;101784.06;6215476;23;19943;-78
2022/12/04 00:06:12;;;;;;;;;;;;;;;-0.10;100.00;101785.78;6216098;23;19919;-78
2022/12/04 00:08:37;;;;;;;;;;;;;;;-0.12;100.00;101785.75;6215345;23;19957;-77
2022/12/04 00:11:04;;;;;;;;;;;;;;;-0.08;100.00;101790.16;6216287;23;19912;-78
2022/12/04 00:13:29;;;;;;;;;;;;;;;-0.10;100.00;101788.34;6215710;23;19919;-78
2022/12/04 00:15:54;;;;;;;;;;;;;;;-0.09;100.00;101778.16;6213908;23;19961;-77
2022/12/04 00:18:20;;;;;;;;;;;;;;;-0.13;100.00;101778.88;6216163;23;19912;-78
2022/12/04 00:20:45;;;;;;;;;;;;;;;-0.14;100.00;101778.81;6215862;23;19912;-78
2022/12/04 00:23:10;;;;;;;;;;;;;;;-0.14;100.00;101784.81;6214597;23;19912;-77
2022/12/04 00:25:35;;;;;;;;;;;;;;;-0.13;100.00;101780.56;6216370;23;19907;-77
2022/12/04 00:28:00;;;;;;;;;;;;;;;-0.08;100.00;101771.34;6215925;23;19918;-77
2022/12/04 00:30:26;;;;;;;;;;;;;;;-0.08;100.00;101773.91;6215037;23;20391;-78
2022/12/04 00:32:51;;;;;;;;;;;;;;;-0.14;100.00;101777.13;6215315;23;19958;-78
2022/12/04 00:35:16;;;;;;;;;;;;;;;-0.13;100.00;101775.44;6215308;23;19927;-77
2022/12/04 00:37:41;;;;;;;;;;;;;;;-0.12;100.00;101772.94;6213653;23;19912;-77
2022/12/04 00:40:07;;;;;;;;;;;;;;;-0.16;100.00;101771.09;6215010;23;20313;-77
2022/12/04 00:42:32;;;;;;;;;;;;;;;-0.18;100.00;101777.84;6216079;23;19990;-77
2022/12/04 00:44:57;;;;;;;;;;;;;;;-0.15;100.00;101774.53;6214636;23;20128;-77
2022/12/04 00:47:22;;;;;;;;;;;;;;;-0.16;100.00;101770.22;6215951;23;19912;-77
2022/12/04 00:49:47;;;;;;;;;;;;;;;-0.17;100.00;101771.88;6214427;23;20620;-77
2022/12/04 00:52:12;;;;;;;;;;;;;;;-0.17;100.00;101777.00;6215190;23;19961;-77
2022/12/04 00:54:38;;;;;;;;;;;;;;;-0.15;100.00;101767.69;6215942;23;19912;-78
2022/12/04 00:57:03;;;;;;;;;;;;;;;-0.16;100.00;101768.53;6216041;23;20220;-77
2022/12/04 00:59:28;;;;;;;;;;;;;;;-0.13;100.00;101765.19;6215076;23;20316;-78
2022/12/04 01:01:53;;;;;;;;;;;;;;;-0.16;100.00;101770.22;6215422;23;19912;-77
2022/12/04 01:04:18;;;;;;;;;;;;;;;-0.17;100.00;101776.16;6215521;23;19971;-77
2022/12/04 01:06:45;;;;;;;;;;;;;;;-0.18;100.00;101772.72;6213875;23;19943;-78
2022/12/04 01:09:10;;;;;;;;;;;;;;;-0.16;100.00;101780.47;6215990;23;19911;-77
2022/12/04 01:11:35;;;;;;;;;;;;;;;-0.17;100.00;101784.69;6215886;23;20331;-77
2022/12/04 01:14:00;;;;;;;;;;;;;;;-0.17;100.00;101786.41;6214254;23;20018;-77
2022/12/04 01:16:30;;;;;;;;;;;;;;;-0.15;100.00;101785.63;6215447;23;19916;-77
2022/12/04 01:18:55;;;;;;;;;;;;;;;-0.15;100.00;101788.19;6213077;23;20304;-77
2022/12/04 01:21:20;;;;;;;;;;;;;;;-0.16;100.00;101788.16;6215851;23;19939;-77
2022/12/04 01:23:46;;;;;;;;;;;;;;;-0.15;100.00;101788.19;6215123;23;19980;-77
2022/12/04 01:26:11;;;;;;;;;;;;;;;-0.17;100.00;101788.97;6214777;23;20384;-77
2022/12/04 01:28:36;;;;;;;;;;;;;;;-0.08;100.00;101786.72;6215805;23;19942;-77
2022/12/04 01:31:07;;;;;;;;;;;;;;;-0.14;100.00;101783.94;6214784;23;19939;-77
2022/12/04 01:33:33;;;;;;;;;;;;;;;-0.15;100.00;101782.22;6214095;23;19922;-77
2022/12/04 01:35:59;;;;;;;;;;;;;;;-0.14;100.00;101789.06;6215442;23;20244;-77
2022/12/04 01:38:24;;;;;;;;;;;;;;;-0.12;100.00;101787.44;6215233;23;20316;-78
2022/12/04 01:40:49;;;;;;;;;;;;;;;-0.13;100.00;101788.25;6214131;23;19986;-77
2022/12/04 01:43:15;;;;;;;;;;;;;;;-0.12;100.00;101775.50;6213641;23;20213;-77
2022/12/04 01:45:46;;;;;;;;;;;;;;;-0.12;100.00;101775.50;6214499;23;19916;-77
2022/12/04 01:48:23;;;;;;;;;;;;;;;-0.07;100.00;101775.66;6214553;23;19940;-77
2022/12/04 01:50:50;;;;;;;;;;;;;;;-0.13;100.00;101770.28;6214989;23;19912;-77
2022/12/04 01:53:17;;;;;;;;;;;;;;;-0.12;100.00;101767.81;6215485;23;19938;-77
2022/12/04 01:55:42;;;;;;;;;;;;;;;-0.14;100.00;101763.44;6214256;23;19966;-78
2022/12/04 01:58:08;;;;;;;;;;;;;;;-0.15;100.00;101760.00;6215654;23;20271;-77
2022/12/04 02:00:33;;;;;;;;;;;;;;;-0.14;100.00;101764.31;6214712;23;19940;-78
2022/12/04 02:02:59;;;;;;;;;;;;;;;-0.11;100.00;101758.41;6213930;23;19986;-78
2022/12/04 02:05:24;;;;;;;;;;;;;;;-0.11;100.00;101758.41;6215550;23;19912;-77
2022/12/04 02:07:51;;;;;;;;;;;;;;;-0.16;100.00;101759.97;6214906;23;20217;-77
2022/12/04 02:10:23;;;;;;;;;;;;;;;-0.10;100.00;101762.72;6214210;23;20342;-78
2022/12/04 02:13:26;;;;;;;;;;;;;;;-0.17;100.00;101758.19;6214352;23;19912;-77
2022/12/04 02:15:56;;;;;;;;;;;;;;;-0.11;100.00;101753.28;6120545;23;20325;-77
2022/12/04 02:18:41;;;;;;;;;;;;;;;-0.18;100.00;101762.47;6123280;23;19917;-78
2022/12/04 02:21:10;;;;;;;;;;;;;;;-0.18;100.00;101759.03;6180123;23;19995;-78
2022/12/04 02:23:53;;;;;;;;;;;;;;;-0.19;100.00;101765.84;6213209;23;20340;-77
2022/12/04 02:26:37;;;;;;;;;;;;;;;-0.21;100.00;101757.22;6213471;23;19922;-77
2022/12/04 02:29:18;;;;;;;;;;;;;;;-0.20;100.00;101764.09;6213762;23;19920;-77
2022/12/04 02:31:50;;;;;;;;;;;;;;;-0.21;100.00;101762.34;6214753;23;19920;-78
2022/12/04 02:34:20;;;;;;;;;;;;;;;-0.18;100.00;101765.03;6214581;23;19918;-77
2022/12/04 02:36:54;;;;;;;;;;;;;;;-0.20;100.00;101765.78;6215068;23;20282;-78
2022/12/04 02:39:41;;;;;;;;;;;;;;;-0.19;100.00;101762.44;6216351;23;19912;-78
2022/12/04 02:42:13;;;;;;;;;;;;;;;-0.18;100.00;101761.59;6216503;23;19912;-77
2022/12/04 02:44:43;;;;;;;;;;;;;;;-0.18;100.00;101762.47;6215875;23;19911;-77
2022/12/04 02:47:11;;;;;;;;;;;;;;;-0.17;100.00;101763.34;6217232;23;19918;-77
2022/12/04 02:49:40;;;;;;;;;;;;;;;-0.21;100.00;101754.66;6217396;23;19916;-77
2022/12/04 02:52:10;;;;;;;;;;;;;;;-0.22;100.00;101755.50;6216166;23;19916;-78
2022/12/04 02:54:38;;;;;;;;;;;;;;;-0.20;100.00;101758.09;6216983;23;19956;-77
2022/12/04 02:57:04;;;;;;;;;;;;;;;-0.21;100.00;101748.66;6215529;23;19915;-78
2022/12/04 02:59:36;;;;;;;;;;;;;;;-0.21;100.00;101741.84;6215217;23;20320;-77
2022/12/04 03:02:06;;;;;;;;;;;;;;;-0.20;100.00;101752.97;6216286;23;20225;-78
2022/12/04 03:04:32;;;;;;;;;;;;;;;-0.22;100.00;101740.13;6216302;23;19912;-78
2022/12/04 03:07:05;;;;;;;;;;;;;;;-0.22;100.00;101754.63;6216707;23;20735;-78
2022/12/04 03:09:41;;;;;;;;;;;;;;;-0.21;100.00;101753.78;6216234;23;19962;-77
2022/12/04 03:12:06;;;;;;;;;;;;;;;-0.22;100.00;101745.25;6215824;23;19939;-77
2022/12/04 03:14:33;;;;;;;;;;;;;;;-0.23;100.00;101748.59;6216925;23;19912;-77
2022/12/04 03:17:02;;;;;;;;;;;;;;;-0.19;100.00;101750.47;6215292;23;20011;-77
2022/12/04 03:19:32;;;;;;;;;;;;;;;-0.22;100.00;101755.50;6215715;23;19916;-77
2022/12/04 03:21:58;;;;;;;;;;;;;;;-0.25;100.00;101758.81;6215980;23;19947;-77
2022/12/04 03:24:27;;;;;;;;;;;;;;;-0.21;100.00;101756.38;6216793;23;19916;-77
2022/12/04 03:27:01;;;;;;;;;;;;;;;-0.22;100.00;101752.94;6215638;23;20217;-78
2022/12/04 03:29:49;;;;;;;;;;;;;;;-0.21;100.00;101746.09;6215983;23;19990;-77
2022/12/04 03:32:20;;;;;;;;;;;;;;;-0.20;100.00;101746.16;6215874;23;19912;-78
2022/12/04 03:34:57;;;;;;;;;;;;;;;-0.21;100.00;101746.09;6215347;23;20039;-78
2022/12/04 03:37:37;;;;;;;;;;;;;;;-0.20;100.00;101742.72;6215957;23;19994;-77
2022/12/04 03:40:07;;;;;;;;;;;;;;;-0.19;100.00;101740.22;6215111;23;20317;-77
2022/12/04 03:42:42;;;;;;;;;;;;;;;-0.22;100.00;101735.00;6216724;23;20214;-78
2022/12/04 03:45:13;;;;;;;;;;;;;;;-0.10;100.00;101726.84;6216082;23;19966;-77
2022/12/04 03:47:44;;;;;;;;;;;;;;;-0.17;100.00;101735.13;6215158;23;19966;-78
2022/12/04 03:50:09;;;;;;;;;;;;;;;-0.21;100.00;101730.72;6216554;23;19912;-77
2022/12/04 03:52:46;;;;;;;;;;;;;;;-0.25;100.00;101735.75;6215820;23;19915;-77
2022/12/04 03:55:27;;;;;;;;;;;;;;;-0.26;100.00;101736.56;6215527;23;19916;-77
2022/12/04 03:57:55;;;;;;;;;;;;;;;-0.16;100.00;101734.34;6216178;23;19912;-77
2022/12/04 04:00:22;;;;;;;;;;;;;;;-0.21;100.00;101730.72;6216355;23;19958;-77
2022/12/04 04:02:58;;;;;;;;;;;;;;;-0.23;100.00;101740.91;6215090;23;19916;-77
2022/12/04 04:05:24;;;;;;;;;;;;;;;-0.20;100.00;101729.91;6215108;23;20320;-78
2022/12/04 04:07:51;;;;;;;;;;;;;;;-0.22;100.00;101726.44;6215118;23;19939;-77
2022/12/04 04:10:19;;;;;;;;;;;;;;;-0.24;100.00;101737.47;6216012;23;20316;-77
2022/12/04 04:24:12;;;;;;;;;;;;;;;-0.25;100.00;101735.75;6215704;23;20316;-77
2022/12/04 04:26:35;;;;;;;;;;;;;;;-0.25;100.00;101727.19;6215994;23;19919;-77
2022/12/04 04:29:01;;;;;;;;;;;;;;;-0.24;100.00;101731.50;6214487;23;19987;-77
2022/12/04 04:31:26;;;;;;;;;;;;;;;-0.21;100.00;101735.84;6215373;23;20271;-78
2022/12/04 04:34:19;;;;;;;;;;;;;;;-0.21;100.00;101734.16;6213562;23;19912;-77
2022/12/04 04:37:11;;;;;;;;;;;;;;;-0.21;100.00;101735.84;6212932;23;20279;-77
2022/12/04 04:39:44;;;;;;;;;;;;;;;-0.19;100.00;101726.53;6180593;23;20231;-77
2022/12/04 04:42:16;;;;;;;;;;;;;;;-0.21;100.00;101723.03;6215913;23;20038;-77
2022/12/04 04:44:41;;;;;;;;;;;;;;;-0.18;100.00;101730.84;6214729;23;20029;-77
2022/12/04 04:47:11;;;;;;;;;;;;;;;-0.19;100.00;101734.22;6215988;23;19912;-77
2022/12/04 04:49:38;;;;;;;;;;;;;;;-0.19;100.00;101729.09;6214579;23;19970;-78
2022/12/04 04:52:03;;;;;;;;;;;;;;;-0.18;100.00;101735.97;6214876;23;19934;-78
2022/12/04 04:54:29;;;;;;;;;;;;;;;-0.15;100.00;101734.38;6215724;23;20329;-77
2022/12/04 04:56:55;;;;;;;;;;;;;;;-0.17;100.00;101735.13;6213590;23;19912;-77
2022/12/04 04:59:20;;;;;;;;;;;;;;;-0.19;100.00;101737.66;6215530;23;19995;-77
2022/12/04 05:01:45;;;;;;;;;;;;;;;-0.14;100.00;101740.38;6212957;23;20039;-77
2022/12/04 05:04:10;;;;;;;;;;;;;;;-0.14;100.00;101743.81;6214595;23;19912;-77
2022/12/04 05:06:36;;;;;;;;;;;;;;;-0.16;100.00;101742.91;6215159;23;20283;-77
2022/12/04 05:09:01;;;;;;;;;;;;;;;-0.12;100.00;101736.19;6215149;23;19982;-77
2022/12/04 05:11:26;;;;;;;;;;;;;;;-0.16;100.00;101736.91;6214595;23;19912;-77
2022/12/04 05:13:51;;;;;;;;;;;;;;;-0.14;100.00;101737.81;6215350;23;19919;-77
2022/12/04 05:16:17;;;;;;;;;;;;;;;-0.10;100.00;101737.09;6213679;23;19912;-78
2022/12/04 05:19:52;;;;;;;;;;;;;;;-0.16;100.00;101734.34;6214331;23;19919;-77
2022/12/04 05:21:31;;;;;;;;;;;;;;;-0.15;100.00;101738.63;6212785;23;19950;-77
2022/12/04 05:23:56;;;;;;;;;;;;;;;-0.13;100.00;101735.31;6214087;23;20317;-77
2022/12/04 05:26:22;;;;;;;;;;;;;;;-0.14;100.00;101737.81;6213605;23;19999;-77
2022/12/04 05:28:47;;;;;;;;;;;;;;;-0.13;100.00;101742.09;6213996;23;19951;-77
2022/12/04 05:31:12;;;;;;;;;;;;;;;-0.13;100.00;101739.53;6214790;23;19922;-77
2022/12/04 05:33:37;;;;;;;;;;;;;;;-0.13;100.00;101730.19;6213964;23;19912;-77
2022/12/04 05:36:05;;;;;;;;;;;;;;;-0.10;100.00;101739.66;6213948;23;19919;-77
2022/12/04 05:38:30;;;;;;;;;;;;;;;-0.12;100.00;101731.91;6215686;23;19912;-77
2022/12/04 05:40:59;;;;;;;;;;;;;;;-0.13;100.00;101730.19;6213760;23;19937;-78
2022/12/04 05:43:24;;;;;;;;;;;;;;;-0.14;100.00;101738.69;6213913;23;19939;-78
2022/12/04 05:45:50;;;;;;;;;;;;;;;-0.12;100.00;101731.06;6214869;23;19907;-78
2022/12/04 05:48:15;;;;;;;;;;;;;;;-0.13;100.00;101719.94;6214340;23;19943;-78
2022/12/04 05:50:40;;;;;;;;;;;;;;;-0.08;100.00;101725.22;6214847;23;19908;-77
2022/12/04 05:53:05;;;;;;;;;;;;;;;-0.15;100.00;101730.94;6213611;23;20228;-78
2022/12/04 05:55:30;;;;;;;;;;;;;;;-0.16;100.00;101721.53;6214788;23;19912;-77
2022/12/04 05:57:56;;;;;;;;;;;;;;;-0.08;100.00;101717.53;6214417;23;19908;-77
2022/12/04 06:00:21;;;;;;;;;;;;;;;-0.13;100.00;101716.47;6212759;23;19916;-78
2022/12/04 06:02:46;;;;;;;;;;;;;;;-0.18;100.00;101712.91;6214882;23;20339;-77
2022/12/04 06:05:12;;;;;;;;;;;;;;;-0.18;100.00;101711.19;6214631;23;20317;-77
2022/12/04 06:07:37;;;;;;;;;;;;;;;-0.16;100.00;101704.44;6214502;23;19912;-78
2022/12/04 06:10:02;;;;;;;;;;;;;;;-0.18;100.00;101708.63;6214704;23;19912;-78
2022/12/04 06:12:28;;;;;;;;;;;;;;;-0.16;100.00;101724.09;6216992;23;19919;-78
2022/12/04 06:14:54;;;;;;;;;;;;;;;-0.20;100.00;101711.97;6215812;23;20004;-77
2022/12/04 06:17:19;;;;;;;;;;;;;;;-0.21;100.00;101703.41;6217245;23;19912;-78
2022/12/04 06:19:44;;;;;;;;;;;;;;;-0.20;100.00;101710.28;6216720;23;19966;-78
2022/12/04 06:22:09;;;;;;;;;;;;;;;-0.17;100.00;101717.19;6215699;23;19912;-78
2022/12/04 06:24:34;;;;;;;;;;;;;;;-0.17;100.00;101715.50;6217436;23;19912;-78
2022/12/04 06:27:00;;;;;;;;;;;;;;;-0.14;100.00;101720.72;6216124;23;19922;-78
2022/12/04 06:29:25;;;;;;;;;;;;;;;-0.14;100.00;101722.44;6216281;23;19986;-78
2022/12/04 06:31:50;;;;;;;;;;;;;;;-0.16;100.00;101724.09;6217062;23;20317;-78
2022/12/04 06:34:16;;;;;;;;;;;;;;;-0.15;100.00;101719.00;6216876;23;20317;-78
2022/12/04 06:36:41;;;;;;;;;;;;;;;-0.11;100.00;101712.28;6215876;23;19912;-78
2022/12/04 06:39:06;;;;;;;;;;;;;;;-0.13;100.00;101721.59;6217183;23;20224;-78
2022/12/04 06:41:32;;;;;;;;;;;;;;;-0.13;100.00;101719.94;6216447;23;19940;-77
2022/12/04 06:43:57;;;;;;;;;;;;;;;-0.14;100.00;101719.88;6215795;23;20461;-77
2022/12/04 06:46:23;;;;;;;;;;;;;;;-0.12;100.00;101719.09;6217184;23;20329;-77
2022/12/04 06:48:50;;;;;;;;;;;;;;;-0.12;100.00;101719.09;6216738;23;19912;-77
2022/12/04 06:51:16;;;;;;;;;;;;;;;-0.07;100.00;101719.25;6216280;23;19908;-77
2022/12/04 06:53:42;;;;;;;;;;;;;;;-0.10;100.00;101721.72;6216587;23;19919;-77
2022/12/04 06:56:08;;;;;;;;;;;;;;;-0.11;100.00;101735.34;6215920;23;19982;-78
2022/12/04 06:58:34;;;;;;;;;;;;;;;-0.08;100.00;101725.22;6216138;23;19919;-78
2022/12/04 07:01:04;;;;;;;;;;;;;;;-0.09;100.00;101737.16;6216409;23;19912;-77
2022/12/04 07:03:29;;;;;;;;;;;;;;;-0.10;100.00;101739.66;6215815;23;20321;-77
2022/12/04 07:05:54;;;;;;;;;;;;;;;-0.09;100.00;101733.72;6216650;23;19916;-77
2022/12/04 07:08:20;;;;;;;;;;;;;;;-0.10;100.00;101737.09;6217056;23;19967;-77
2022/12/04 07:10:45;;;;;;;;;;;;;;;-0.11;100.00;101730.22;6212949;23;20375;-77
2022/12/04 07:13:10;;;;;;;;;;;;;;;-0.12;100.00;101742.19;6216276;23;19994;-77
2022/12/04 07:15:36;;;;;;;;;;;;;;;-0.12;100.00;101742.19;6216902;23;19995;-77
2022/12/04 07:18:01;;;;;;;;;;;;;;;-0.11;100.00;101748.16;6215639;23;19965;-77
2022/12/04 07:20:26;;;;;;;;;;;;;;;-0.10;100.00;101744.78;6216888;23;19919;-77
2022/12/04 07:22:52;;;;;;;;;;;;;;;-0.08;100.00;101754.28;6215095;23;19915;-77
2022/12/04 07:25:17;;;;;;;;;;;;;;;-0.06;100.00;101762.03;6215523;23;20283;-77
2022/12/04 07:27:42;;;;;;;;;;;;;;;-0.06;100.00;101757.78;6216221;23;19912;-77
2022/12/04 07:30:08;;;;;;;;;;;;;;;-0.07;100.00;101757.69;6216127;23;19938;-77
2022/12/04 07:32:33;;;;;;;;;;;;;;;-0.04;100.00;101752.69;6215906;23;19912;-77
2022/12/04 07:34:59;;;;;;;;;;;;;;;-0.07;100.00;101755.13;6216345;23;19917;-77
2022/12/04 07:37:24;;;;;;;;;;;;;;;-0.01;100.00;101755.34;6215970;23;20000;-77
2022/12/04 07:39:50;;;;;;;;;;;;;;;-0.07;100.00;101750.88;6214751;23;19912;-77
2022/12/04 07:42:15;;;;;;;;;;;;;;;-0.07;100.00;101760.25;6214830;23;19927;-78
2022/12/04 07:44:40;;;;;;;;;;;;;;;-0.07;100.00;101761.13;6216238;23;19915;-77
2022/12/04 07:47:05;;;;;;;;;;;;;;;-0.03;100.00;101759.56;6215929;23;19919;-78
2022/12/04 07:49:31;;;;;;;;;;;;;;;-0.03;100.00;101763.00;6216320;23;20312;-77
2022/12/04 07:51:56;;;;;;;;;;;;;;;-0.04;100.00;101765.50;6214968;23;19927;-78
2022/12/04 07:54:21;;;;;;;;;;;;;;;-0.02;100.00;101766.44;6215717;23;19912;-77
2022/12/04 07:56:46;;;;;;;;;;;;;;;0.02;100.00;101763.16;6215880;23;19916;-78
2022/12/04 07:59:11;;;;;;;;;;;;;;;0.05;100.00;101762.38;6216675;23;20371;-77
2022/12/04 08:01:37;;;;;;;;;;;;;;;0.04;100.00;101771.78;6215108;23;19918;-77
2022/12/04 08:04:03;;;;;;;;;;;;;;;0.02;100.00;101769.97;6215241;23;19916;-77
2022/12/04 08:06:29;;;;;;;;;;;;;;;0.04;100.00;101776.91;6216355;23;19912;-78
2022/12/04 08:08:56;;;;;;;;;;;;;;;0.13;100.00;101774.66;6215259;23;19912;-77
2022/12/04 08:11:22;;;;;;;;;;;;;;;0.08;100.00;101770.19;6216390;23;19934;-77
2022/12/04 08:13:47;;;;;;;;;;;;;;;0.12;100.00;101772.03;6215059;23;19912;-77
2022/12/04 08:16:13;;;;;;;;;;;;;;;0.13;100.00;101776.31;6216063;23;20267;-77
2022/12/04 08:18:39;;;;;;;;;;;;;;;0.15;100.00;101778.13;6214713;23;19912;-77
2022/12/04 08:21:09;;;;;;;;;;;;;;;0.18;100.00;101778.25;6213963;23;19912;-77
2022/12/04 08:23:35;;;;;;;;;;;;;;;0.17;100.00;101773.06;6215740;23;19919;-77
2022/12/04 08:26:00;;;;;;;;;;;;;;;0.19;100.00;101777.41;6215443;23;19923;-77
2022/12/04 08:28:26;;;;;;;;;;;;;;;0.27;100.00;101781.94;6215076;23;19916;-77
2022/12/04 08:30:51;;;;;;;;;;;;;;;0.31;100.00;101783.78;6215298;23;19955;-77
2022/12/04 08:33:16;;;;;;;;;;;;;;;0.27;100.00;101776.81;6215765;23;20299;-77
2022/12/04 08:35:41;;;;;;;;;;;;;;;0.29;100.00;101783.72;6213858;23;19912;-78
2022/12/04 08:38:07;;;;;;;;;;;;;;;0.39;100.00;101769.50;6216190;23;19912;-77
2022/12/04 08:40:32;;;;;;;;;;;;;;;0.35;100.00;101772.78;6216036;23;20025;-77
2022/12/04 08:42:57;;;;;;;;;;;;;;;0.37;100.00;101773.72;6214752;23;20069;-77
2022/12/04 08:45:22;;;;;;;;;;;;;;;0.37;100.00;101771.16;6216157;23;19911;-78
2022/12/04 08:47:47;;;;;;;;;;;;;;;0.38;100.00;101772.91;6214934;23;19912;-77
2022/12/04 08:50:12;;;;;;;;;;;;;;;0.38;100.00;101767.78;6214876;23;20209;-77
2022/12/04 08:52:38;;;;;;;;;;;;;;;0.41;100.00;101770.44;6215957;23;19912;-77
2022/12/04 08:55:03;;;;;;;;;;;;;;;0.44;100.00;101779.09;6215729;23;19916;-78
2022/12/04 08:57:28;;;;;;;;;;;;;;;0.50;100.00;101770.75;6214712;23;19912;-77
2022/12/04 08:59:53;;;;;;;;;;;;;;;0.50;100.00;101765.63;6215414;23;19912;-77
2022/12/04 09:02:18;;;;;;;;;;;;;;;0.59;100.00;101759.88;6215884;23;19919;-77
2022/12/04 09:04:44;;;;;;;;;;;;;;;0.58;100.00;101764.16;6213890;23;20329;-77
2022/12/04 09:07:09;;;;;;;;;;;;;;;0.63;100.00;101756.63;6214815;23;20232;-76
2022/12/04 09:09:34;;;;;;;;;;;;;;;0.72;100.00;101766.28;6215612;23;19912;-77
2022/12/04 09:11:59;;;;;;;;;;;;;;;0.70;100.00;101763.69;6212259;23;19918;-80
2022/12/04 09:14:25;;;;;;;;;;;;;;;0.72;100.00;101766.28;6212829;23;19954;-78
2022/12/04 09:16:53;;;;;;;;;;;;;;;0.79;100.00;101769.09;6214313;23;19958;-78
2022/12/04 09:19:19;;;;;;;;;;;;;;;0.78;100.00;101766.47;6213808;23;19915;-78
2022/12/04 09:21:44;;;;;;;;;;;;;;;0.79;100.00;101774.25;6214398;23;20316;-78
2022/12/04 09:24:09;;;;;;;;;;;;;;;0.84;100.00;101776.94;6213940;23;19918;-78
2022/12/04 09:26:34;;;;;;;;;;;;;;;0.89;100.00;101775.41;6214063;23;19919;-78
2022/12/04 09:29:01;;;;;;;;;;;;;;;0.90;100.00;101785.69;6214271;23;19943;-78
2022/12/04 09:31:26;;;;;;;;;;;;;;;0.89;100.00;101778.84;6213272;23;19919;-79
2022/12/04 09:33:52;;;;;;;;;;;;;;;0.92;100.00;101781.50;6213788;23;20138;-78
2022/12/04 09:36:17;;;;;;;;;;;;;;;0.97;100.00;101785.91;6214536;23;19912;-78
2022/12/04 09:38:44;;;;;;;;;;;;;;;0.99;100.00;101782.56;6213995;23;19912;-78
2022/12/04 09:41:09;;;;;;;;;;;;;;;1.00;100.00;101786.84;6214605;23;19919;-78
2022/12/04 09:44:01;;;;;;;;;;;;;;;1.02;100.00;101785.22;6215041;23;20279;-78
2022/12/04 09:46:41;;;;;;;;;;;;;;;0.98;100.00;101769.66;6178686;23;19939;-79
2022/12/04 09:49:25;;;;;;;;;;;;;;;0.92;100.00;101766.09;6214336;23;19919;-79
2022/12/04 09:51:53;;;;;;;;;;;;;;;0.92;100.00;101780.63;6214111;23;19912;-79
2022/12/04 09:54:23;;;;;;;;;;;;;;;0.88;100.00;101776.19;6214132;23;19966;-79
2022/12/04 09:56:54;;;;;;;;;;;;;;;0.85;100.00;101784.72;6214758;23;19958;-79
2022/12/04 09:59:26;;;;;;;;;;;;;;;0.80;100.00;101785.38;6214301;23;20312;-76
2022/12/04 10:02:09;;;;;;;;;;;;;;;0.74;100.00;101790.31;6212988;23;19974;-77
2022/12/04 10:04:34;;;;;;;;;;;;;;;0.74;100.00;101795.44;6214548;23;19919;-78
2022/12/04 10:06:59;;;;;;;;;;;;;;;0.73;100.00;101789.44;6213653;23;20236;-78
2022/12/04 10:09:33;;;;;;;;;;;;;;;0.70;100.00;101790.22;6214620;23;20308;-78
2022/12/04 10:12:08;;;;;;;;;;;;;;;0.71;100.00;101791.09;6213765;23;19923;-78
2022/12/04 10:14:42;;;;;;;;;;;;;;;0.74;100.00;101792.88;6213344;23;19912;-77
2022/12/04 10:17:28;;;;;;;;;;;;;;;0.68;100.00;101781.56;6214792;23;19922;-78
2022/12/04 10:20:13;;;;;;;;;;;;;;;0.66;100.00;101777.25;6213901;23;19912;-78
2022/12/04 10:22:57;;;;;;;;;;;;;;;0.67;100.00;101778.97;6213787;23;20339;-78
2022/12/04 10:25:23;;;;;;;;;;;;;;;0.63;100.00;101767.75;6214925;23;20331;-78
2022/12/04 10:28:07;;;;;;;;;;;;;;;0.62;100.00;101773.72;6210581;23;19912;-80
2022/12/04 10:30:35;;;;;;;;;;;;;;;0.67;100.00;101773.84;6213668;23;19916;-80
2022/12/04 10:33:12;;;;;;;;;;;;;;;0.57;100.00;101782.94;6207147;23;19916;-78
2022/12/04 10:35:40;;;;;;;;;;;;;;;0.64;100.00;101774.63;6208923;23;20339;-79
2022/12/04 10:38:09;;;;;;;;;;;;;;;0.56;100.00;101781.22;6213685;23;19955;-79
2022/12/04 10:40:47;;;;;;;;;;;;;;;0.54;100.00;101781.97;6214794;23;19958;-79
2022/12/04 10:43:21;;;;;;;;;;;;;;;0.57;100.00;101788.06;6212942;23;20321;-79
2022/12/04 10:45:47;;;;;;;;;;;;;;;0.58;100.00;101782.09;6212473;23;20351;-79
2022/12/04 10:48:17;;;;;;;;;;;;;;;0.57;100.00;101777.81;6214346;23;19912;-79
2022/12/04 10:50:42;;;;;;;;;;;;;;;0.63;100.00;101770.31;6210531;23;19916;-78
2022/12/04 10:53:10;;;;;;;;;;;;;;;0.63;100.00;101778.00;6212810;23;19934;-79
2022/12/04 10:55:37;;;;;;;;;;;;;;;0.66;100.00;101775.53;6213007;23;19916;-78
2022/12/04 10:58:02;;;;;;;;;;;;;;;0.67;100.00;101774.72;6215952;23;19918;-78
2022/12/04 11:00:27;;;;;;;;;;;;;;;0.66;100.00;101766.97;6214811;23;19912;-79
2022/12/04 11:02:54;;;;;;;;;;;;;;;0.66;100.00;101760.16;6213821;23;19966;-79
2022/12/04 11:05:31;;;;;;;;;;;;;;;0.64;100.00;101766.91;6215176;23;19983;-79
2022/12/04 11:07:57;;;;;;;;;;;;;;;0.67;100.00;101753.31;6213758;23;19926;-79
2022/12/04 11:10:42;;;;;;;;;;;;;;;0.67;100.00;101759.31;6214503;23;19918;-79
2022/12/04 11:13:10;;;;;;;;;;;;;;;0.62;100.00;101752.28;6215681;23;19911;-78
2022/12/04 11:15:41;;;;;;;;;;;;;;;0.64;100.00;101756.66;6216336;23;19970;-79
2022/12/04 11:18:07;;;;;;;;;;;;;;;0.59;100.00;101755.66;6214596;23;19915;-79
2022/12/04 11:20:32;;;;;;;;;;;;;;;0.59;100.00;101747.94;6214862;23;20330;-79
2022/12/04 11:22:58;;;;;;;;;;;;;;;0.64;100.00;101742.94;6215401;23;19955;-79
2022/12/04 11:25:29;;;;;;;;;;;;;;;0.65;100.00;101740.44;6214291;23;19920;-78
2022/12/04 11:27:57;;;;;;;;;;;;;;;0.66;100.00;101738.75;6215154;23;19912;-78
2022/12/04 11:30:33;;;;;;;;;;;;;;;0.61;100.00;101738.59;6214765;23;20339;-78
2022/12/04 11:32:59;;;;;;;;;;;;;;;0.60;100.00;101741.13;6213979;23;19915;-79
2022/12/04 11:35:26;;;;;;;;;;;;;;;0.59;100.00;101735.13;6214043;23;19946;-79
2022/12/04 11:37:54;;;;;;;;;;;;;;;0.59;100.00;101740.25;6214173;23;19920;-78
2022/12/04 11:40:20;;;;;;;;;;;;;;;0.63;100.00;101736.09;6214665;23;19912;-79
2022/12/04 11:42:56;;;;;;;;;;;;;;;0.58;100.00;101737.63;6215145;23;19958;-78
2022/12/04 11:45:22;;;;;;;;;;;;;;;0.62;100.00;101732.66;6214605;23;19931;-79
2022/12/04 11:47:55;;;;;;;;;;;;;;;0.60;100.00;101736.00;6213353;23;20308;-78
2022/12/04 11:50:37;;;;;;;;;;;;;;;0.62;100.00;101740.34;6214624;23;19908;-78
2022/12/04 11:53:02;;;;;;;;;;;;;;;0.62;100.00;101744.59;6215291;23;19912;-79
2022/12/04 11:55:40;;;;;;;;;;;;;;;0.64;100.00;101737.81;6216707;23;19958;-78
2022/12/04 11:58:20;;;;;;;;;;;;;;;0.66;100.00;101731.91;6215990;23;19912;-76
2022/12/04 12:01:08;;;;;;;;;;;;;;;0.58;100.00;101741.06;6213799;23;20313;-79
2022/12/04 12:03:39;;;;;;;;;;;;;;;0.57;100.00;101726.50;6173601;23;19911;-78
2022/12/04 12:06:07;;;;;;;;;;;;;;;0.59;100.00;101719.72;6212600;23;20223;-78
2022/12/04 12:08:56;;;;;;;;;;;;;;;0.60;100.00;101721.47;6214855;23;20277;-79
2022/12/04 12:11:27;;;;;;;;;;;;;;;0.64;100.00;101723.28;6216407;23;19915;-78
2022/12/04 12:13:58;;;;;;;;;;;;;;;0.65;100.00;101714.78;6214899;23;19919;-78
2022/12/04 12:16:23;;;;;;;;;;;;;;;0.65;100.00;101719.03;6213991;23;20240;-79
2022/12/04 12:18:55;;;;;;;;;;;;;;;0.64;100.00;101709.59;6215221;23;19908;-78
2022/12/04 12:21:25;;;;;;;;;;;;;;;0.66;100.00;101711.38;6214859;23;19912;-78
2022/12/04 12:24:08;;;;;;;;;;;;;;;0.65;100.00;101709.66;6215519;23;19912;-78
2022/12/04 12:26:49;;;;;;;;;;;;;;;0.66;100.00;101703.69;6216341;23;19912;-78
2022/12/04 12:29:21;;;;;;;;;;;;;;;0.66;100.00;101698.56;6215438;23;19943;-78
2022/12/04 12:31:53;;;;;;;;;;;;;;;0.66;100.00;101703.69;6215897;23;19923;-78
2022/12/04 12:34:26;;;;;;;;;;;;;;;0.68;100.00;101698.59;6214287;23;21614;-78
2022/12/04 12:36:52;;;;;;;;;;;;;;;0.69;100.00;101696.09;6215640;23;19918;-78
2022/12/04 12:39:22;;;;;;;;;;;;;;;0.70;100.00;101687.56;6213508;23;19916;-79
2022/12/04 12:41:49;;;;;;;;;;;;;;;0.70;100.00;101691.81;6212522;23;19912;-79
2022/12/04 12:44:21;;;;;;;;;;;;;;;0.70;100.00;101684.97;6213206;23;19994;-78
2022/12/04 12:46:52;;;;;;;;;;;;;;;0.72;100.00;101687.63;6213833;23;20232;-78
2022/12/04 12:49:17;;;;;;;;;;;;;;;0.74;100.00;101683.38;6212646;23;19912;-79